Auke Bay, Alaska
Current Conditions -  °F | °C
As of 11:53 AM on Friday 31 Oct 2014 (Local Time) from PAJN Reporting Station
Light Rain Light Rain  
Wind Chill: 33°   Ceiling: 3400
Heat Index: 42°   Visibility: 6mi
Dew Point: 38°   Wind: 20mph
Humidity: 85%   Direction: 110°ESE
Pressure: 29.53"   Gusts: 28mph
Location:  58.38°N, 134.67°W
Report Text: PAJN 311953Z 11017G24KT 6SM -RA BR FEW027 BKN034 OVC042 06/03 A2953 RMK AO2 SLP998 VIS LWR E-SE P0001 T00560033
Loading
Personal Weather Stations






























Interactive Weather Map
Tropical Storm Tracking
New forecast layout! Learn more

10-Day Weather Forecast

Advertisements
Track Severe Weather on mobile